Time;durP1;ratioP1;P1;durP2;ratioP2;P2;SDS_P1;SDS_P2;PMS_P1;PMS_P2;Temp;Humidity;BMP_temperature;BMP_pressure;BME280_temperature;BME280_humidity;BME280_pressure;Samples;Min_cycle;Max_cycle;Signal;HPM_P1;HPM_P2
2022/05/18 00:00:12;;;;;;;0.32;0.32;;;;;;;;;;6127176;23;20390;-81
2022/05/18 00:02:38;;;;;;;0.10;0.10;;;;;;;;;;6128407;23;20029;-80
2022/05/18 00:05:03;;;;;;;0.32;0.32;;;;;;;;;;6129430;23;20001;-82
2022/05/18 00:07:29;;;;;;;0.60;0.57;;;;;;;;;;6129401;23;20013;-80
2022/05/18 00:09:54;;;;;;;0.15;0.00;;;;;;;;;;6129062;23;20056;-82
2022/05/18 00:12:22;;;;;;;2.55;1.55;;;;;;;;;;6128134;23;20069;-80
2022/05/18 00:14:48;;;;;;;0.68;0.68;;;;;;;;;;6127762;23;20084;-81
2022/05/18 00:17:13;;;;;;;0.28;0.25;;;;;;;;;;6129433;23;20044;-81
2022/05/18 00:19:38;;;;;;;2.53;0.55;;;;;;;;;;6128941;23;20081;-81
2022/05/18 00:22:04;;;;;;;1.08;0.80;;;;;;;;;;6129110;23;20006;-81
2022/05/18 00:24:32;;;;;;;0.93;0.65;;;;;;;;;;6129101;23;20398;-81
2022/05/18 00:26:57;;;;;;;0.35;0.35;;;;;;;;;;6129312;23;20002;-82
2022/05/18 00:29:23;;;;;;;0.55;0.55;;;;;;;;;;6129011;23;19998;-82
2022/05/18 00:31:48;;;;;;;0.63;0.50;;;;;;;;;;6129143;23;20006;-81
2022/05/18 00:34:17;;;;;;;0.40;0.40;;;;;;;;;;6128484;23;20037;-80
2022/05/18 00:36:42;;;;;;;0.60;0.28;;;;;;;;;;6128009;23;20314;-81
2022/05/18 00:39:08;;;;;;;0.50;0.50;;;;;;;;;;6129339;23;20010;-81
2022/05/18 00:41:34;;;;;;;0.85;0.32;;;;;;;;;;6128974;23;20013;-81
2022/05/18 00:43:59;;;;;;;0.88;0.20;;;;;;;;;;6128725;23;20010;-80
2022/05/18 00:46:25;;;;;;;1.85;0.85;;;;;;;;;;6129097;23;20198;-77
2022/05/18 00:48:52;;;;;;;0.45;0.45;;;;;;;;;;6127077;23;20061;-79
2022/05/18 00:51:28;;;;;;;0.32;0.30;;;;;;;;;;6128674;23;20057;-79
2022/05/18 00:54:02;;;;;;;0.32;0.32;;;;;;;;;;6128773;23;20398;-79
2022/05/18 00:56:39;;;;;;;0.63;0.50;;;;;;;;;;6127437;23;20006;-80
2022/05/18 00:59:08;;;;;;;0.25;0.25;;;;;;;;;;6128881;23;20006;-78
2022/05/18 01:01:34;;;;;;;0.30;0.30;;;;;;;;;;6128870;23;20002;-79
2022/05/18 01:04:03;;;;;;;0.40;0.40;;;;;;;;;;6128622;23;20092;-80
2022/05/18 01:06:35;;;;;;;0.45;0.45;;;;;;;;;;6127566;23;20310;-77
2022/05/18 01:09:05;;;;;;;0.40;0.40;;;;;;;;;;6127879;23;20489;-79
2022/05/18 01:11:33;;;;;;;0.20;0.20;;;;;;;;;;6129317;23;20032;-80
2022/05/18 01:13:58;;;;;;;1.27;1.08;;;;;;;;;;6152260;23;20477;-80
2022/05/18 01:16:28;;;;;;;0.57;0.57;;;;;;;;;;6128513;23;20041;-80
2022/05/18 01:18:54;;;;;;;0.10;0.10;;;;;;;;;;6127353;23;20033;-80
2022/05/18 01:21:20;;;;;;;0.15;0.15;;;;;;;;;;6127854;23;20064;-79
2022/05/18 01:23:45;;;;;;;0.47;0.43;;;;;;;;;;6127550;23;20009;-80
2022/05/18 01:26:15;;;;;;;0.20;0.20;;;;;;;;;;6128660;23;20040;-79
2022/05/18 01:28:45;;;;;;;0.88;0.43;;;;;;;;;;6136298;23;20009;-79
2022/05/18 01:31:10;;;;;;;0.32;0.25;;;;;;;;;;6136856;23;20002;-81
2022/05/18 01:33:38;;;;;;;0.20;0.20;;;;;;;;;;6130378;23;20017;-79
2022/05/18 01:36:04;;;;;;;0.60;0.43;;;;;;;;;;6128647;23;20002;-78
2022/05/18 01:38:32;;;;;;;0.38;0.38;;;;;;;;;;6128819;23;20077;-80
2022/05/18 01:41:18;;;;;;;0.20;0.20;;;;;;;;;;6128481;23;19998;-80
2022/05/18 01:43:47;;;;;;;0.30;0.30;;;;;;;;;;6127195;23;20029;-80
2022/05/18 01:46:14;;;;;;;0.17;0.17;;;;;;;;;;6127084;23;20002;-80
2022/05/18 01:48:45;;;;;;;0.45;0.45;;;;;;;;;;6127461;23;20041;-80
2022/05/18 01:51:12;;;;;;;0.20;0.20;;;;;;;;;;6127291;23;20009;-79
2022/05/18 01:53:37;;;;;;;0.00;0.00;;;;;;;;;;6128165;23;20010;-80
2022/05/18 01:56:08;;;;;;;0.60;0.60;;;;;;;;;;6128530;23;20001;-79
2022/05/18 01:58:33;;;;;;;0.10;0.10;;;;;;;;;;6128262;23;20005;-77
2022/05/18 02:01:00;;;;;;;0.38;0.38;;;;;;;;;;6127183;23;20077;-81
2022/05/18 02:03:26;;;;;;;2.60;0.77;;;;;;;;;;6128078;23;20044;-80
2022/05/18 02:05:52;;;;;;;0.28;0.28;;;;;;;;;;6128170;23;20002;-79
2022/05/18 02:08:17;;;;;;;0.63;0.63;;;;;;;;;;6127307;23;20002;-79
2022/05/18 02:10:45;;;;;;;0.17;0.17;;;;;;;;;;6102834;23;20017;-78
2022/05/18 02:13:11;;;;;;;0.95;0.85;;;;;;;;;;6128320;23;20089;-79
2022/05/18 02:15:37;;;;;;;1.50;0.52;;;;;;;;;;6126752;23;20018;-78
2022/05/18 02:18:05;;;;;;;0.57;0.57;;;;;;;;;;6128323;23;20001;-79
2022/05/18 02:20:31;;;;;;;3.15;0.70;;;;;;;;;;6128042;23;20002;-77
2022/05/18 02:22:56;;;;;;;0.22;0.20;;;;;;;;;;6127336;23;20073;-79
2022/05/18 02:25:22;;;;;;;0.30;0.30;;;;;;;;;;6127942;23;20005;-79
2022/05/18 02:27:50;;;;;;;0.43;0.43;;;;;;;;;;6127892;23;20069;-79
2022/05/18 02:30:18;;;;;;;1.17;0.68;;;;;;;;;;6127879;23;20406;-79
2022/05/18 02:32:44;;;;;;;0.15;0.15;;;;;;;;;;6127213;23;20271;-79
2022/05/18 02:35:09;;;;;;;0.73;0.28;;;;;;;;;;6127730;23;20008;-80
2022/05/18 02:37:35;;;;;;;0.65;0.65;;;;;;;;;;6151585;23;20006;-79
2022/05/18 02:40:00;;;;;;;0.35;0.28;;;;;;;;;;6127809;23;20362;-78
2022/05/18 02:42:26;;;;;;;0.63;0.57;;;;;;;;;;6151386;23;20048;-79
2022/05/18 02:44:52;;;;;;;0.70;0.70;;;;;;;;;;6126375;23;20002;-79
2022/05/18 02:47:18;;;;;;;0.73;0.50;;;;;;;;;;6127842;23;20041;-79
2022/05/18 02:49:44;;;;;;;0.10;0.10;;;;;;;;;;6126766;23;20070;-80
2022/05/18 02:52:09;;;;;;;0.30;0.30;;;;;;;;;;6127798;23;20339;-79
2022/05/18 02:57:21;;;;;;;0.57;0.57;;;;;;;;;;6127585;23;20040;-79
2022/05/18 02:59:49;;;;;;;0.20;0.20;;;;;;;;;;6127552;23;20001;-79
2022/05/18 03:02:15;;;;;;;0.25;0.25;;;;;;;;;;6126756;23;20006;-78
2022/05/18 03:04:42;;;;;;;0.25;0.25;;;;;;;;;;6127886;23;20005;-80
2022/05/18 03:07:08;;;;;;;0.25;0.25;;;;;;;;;;6127665;23;20033;-79
2022/05/18 03:09:36;;;;;;;0.38;0.35;;;;;;;;;;6127562;23;19997;-79
2022/05/18 03:12:02;;;;;;;1.95;1.63;;;;;;;;;;6126888;23;20034;-79
2022/05/18 03:14:28;;;;;;;0.13;0.13;;;;;;;;;;6127845;23;20002;-78
2022/05/18 03:16:53;;;;;;;0.55;0.25;;;;;;;;;;6127756;23;20017;-80
2022/05/18 03:19:18;;;;;;;0.40;0.40;;;;;;;;;;6126960;23;20078;-80
2022/05/18 03:24:27;;;;;;;0.57;0.55;;;;;;;;;;6128364;23;20016;-79
2022/05/18 03:26:53;;;;;;;1.05;0.40;;;;;;;;;;6127883;23;20416;-81
2022/05/18 03:29:21;;;;;;;0.60;0.60;;;;;;;;;;6126163;23;20006;-81
2022/05/18 03:31:47;;;;;;;0.90;0.80;;;;;;;;;;6151131;23;20012;-79
2022/05/18 03:34:15;;;;;;;0.13;0.13;;;;;;;;;;6127694;23;20033;-80
2022/05/18 03:36:41;;;;;;;0.40;0.40;;;;;;;;;;6127496;23;19998;-81
2022/05/18 03:39:07;;;;;;;0.20;0.20;;;;;;;;;;6127543;23;20053;-82
2022/05/18 03:41:38;;;;;;;0.10;0.10;;;;;;;;;;6125870;23;20001;-81
2022/05/18 03:44:07;;;;;;;0.20;0.20;;;;;;;;;;6127699;23;20006;-81
2022/05/18 03:46:32;;;;;;;1.40;0.80;;;;;;;;;;6127565;23;20002;-80
2022/05/18 03:48:58;;;;;;;0.50;0.50;;;;;;;;;;6127631;23;20025;-81
2022/05/18 03:51:24;;;;;;;1.42;0.85;;;;;;;;;;6127350;23;20161;-81
2022/05/18 03:53:49;;;;;;;0.30;0.30;;;;;;;;;;6125779;23;20542;-81
2022/05/18 03:56:15;;;;;;;0.30;0.30;;;;;;;;;;6126368;23;20008;-80
2022/05/18 03:58:48;;;;;;;1.73;0.65;;;;;;;;;;6127495;23;20037;-81
2022/05/18 04:01:13;;;;;;;0.40;0.40;;;;;;;;;;6127542;23;20002;-79
2022/05/18 04:03:43;;;;;;;0.75;0.32;;;;;;;;;;6127138;23;20012;-81
2022/05/18 04:06:11;;;;;;;0.20;0.20;;;;;;;;;;6126188;23;20029;-80
2022/05/18 04:08:37;;;;;;;0.30;0.30;;;;;;;;;;6127454;23;20377;-80
2022/05/18 04:11:03;;;;;;;0.38;0.30;;;;;;;;;;6127214;23;20016;-80
2022/05/18 04:13:29;;;;;;;0.30;0.30;;;;;;;;;;6126428;23;20035;-80
2022/05/18 04:15:55;;;;;;;0.05;0.05;;;;;;;;;;6125796;23;20005;-83
2022/05/18 04:18:23;;;;;;;1.10;1.00;;;;;;;;;;6126087;23;19998;-81
2022/05/18 04:20:52;;;;;;;0.32;0.32;;;;;;;;;;6127383;23;20021;-81
2022/05/18 04:23:18;;;;;;;0.20;0.20;;;;;;;;;;6127514;23;20001;-81
2022/05/18 04:25:44;;;;;;;1.65;0.57;;;;;;;;;;6127351;23;20040;-80
2022/05/18 04:28:13;;;;;;;0.82;0.57;;;;;;;;;;6127104;23;20279;-81
2022/05/18 04:30:43;;;;;;;0.20;0.20;;;;;;;;;;6126012;23;19998;-80
2022/05/18 04:33:09;;;;;;;0.25;0.25;;;;;;;;;;6127420;23;20006;-80
2022/05/18 04:35:34;;;;;;;0.45;0.43;;;;;;;;;;6127405;23;20040;-81
2022/05/18 04:38:02;;;;;;;0.50;0.50;;;;;;;;;;6127500;23;20302;-81
2022/05/18 04:40:27;;;;;;;1.58;0.85;;;;;;;;;;6127130;23;20084;-81
2022/05/18 04:42:56;;;;;;;0.13;0.13;;;;;;;;;;6125983;23;20029;-81
2022/05/18 04:45:24;;;;;;;0.47;0.47;;;;;;;;;;6127467;23;20006;-82
2022/05/18 04:47:52;;;;;;;0.50;0.50;;;;;;;;;;6127586;23;20026;-81
2022/05/18 04:50:21;;;;;;;0.70;0.63;;;;;;;;;;6128085;23;20002;-81
2022/05/18 04:52:48;;;;;;;1.88;0.75;;;;;;;;;;6127740;23;20077;-81
2022/05/18 04:55:17;;;;;;;0.98;0.95;;;;;;;;;;6127550;23;20017;-81
2022/05/18 04:57:42;;;;;;;3.17;0.95;;;;;;;;;;6129123;23;20300;-80
2022/05/18 05:00:12;;;;;;;0.77;0.55;;;;;;;;;;6128921;23;20041;-81
2022/05/18 05:02:38;;;;;;;0.57;0.50;;;;;;;;;;6128584;23;20002;-83
2022/05/18 05:05:13;;;;;;;0.88;0.40;;;;;;;;;;6128806;23;20125;-79
2022/05/18 05:07:42;;;;;;;0.25;0.25;;;;;;;;;;6129056;23;20065;-81
2022/05/18 05:10:08;;;;;;;0.20;0.20;;;;;;;;;;6128831;23;20012;-81
2022/05/18 05:12:34;;;;;;;0.30;0.30;;;;;;;;;;6127398;23;20088;-81
2022/05/18 05:14:59;;;;;;;0.35;0.35;;;;;;;;;;6127354;23;20001;-80
2022/05/18 05:17:25;;;;;;;0.70;0.47;;;;;;;;;;6128323;23;20021;-81
2022/05/18 05:19:53;;;;;;;0.73;0.50;;;;;;;;;;6151999;23;20269;-80
2022/05/18 05:22:18;;;;;;;0.88;0.82;;;;;;;;;;6128631;23;19998;-80
2022/05/18 05:24:43;;;;;;;2.00;1.20;;;;;;;;;;6128519;23;20306;-79
2022/05/18 05:27:11;;;;;;;0.15;0.15;;;;;;;;;;6128287;23;20060;-80
2022/05/18 05:29:39;;;;;;;0.40;0.40;;;;;;;;;;6127427;23;20001;-80
2022/05/18 05:32:08;;;;;;;0.38;0.10;;;;;;;;;;6128800;23;20005;-80
2022/05/18 05:34:34;;;;;;;0.30;0.30;;;;;;;;;;6128097;23;20362;-80
2022/05/18 05:36:59;;;;;;;0.52;0.52;;;;;;;;;;6127658;23;20013;-79
2022/05/18 05:39:24;;;;;;;2.75;1.15;;;;;;;;;;6128092;23;20009;-80
2022/05/18 05:41:50;;;;;;;0.55;0.47;;;;;;;;;;6128587;23;20013;-80
2022/05/18 05:44:20;;;;;;;1.02;0.52;;;;;;;;;;6128556;23;20438;-80
2022/05/18 05:46:45;;;;;;;3.67;0.73;;;;;;;;;;6128716;23;20002;-81
2022/05/18 05:49:11;;;;;;;0.38;0.28;;;;;;;;;;6128609;23;20358;-81
2022/05/18 05:51:37;;;;;;;1.08;0.43;;;;;;;;;;6128392;23;20091;-80
2022/05/18 05:54:02;;;;;;;0.88;0.82;;;;;;;;;;6128576;23;20006;-79
2022/05/18 05:56:30;;;;;;;1.60;0.55;;;;;;;;;;6128058;23;20014;-78
2022/05/18 05:58:56;;;;;;;0.43;0.22;;;;;;;;;;6127118;23;20113;-81
2022/05/18 06:01:24;;;;;;;0.30;0.30;;;;;;;;;;6127778;23;20394;-80
2022/05/18 06:03:49;;;;;;;0.40;0.40;;;;;;;;;;6128316;23;20010;-80
2022/05/18 06:06:15;;;;;;;0.65;0.65;;;;;;;;;;6128159;23;20006;-83
2022/05/18 06:08:40;;;;;;;0.65;0.63;;;;;;;;;;6128377;23;20025;-80
2022/05/18 06:11:08;;;;;;;0.28;0.28;;;;;;;;;;6127834;23;20398;-83
2022/05/18 06:13:33;;;;;;;0.40;0.40;;;;;;;;;;6128276;23;20134;-82
2022/05/18 06:15:59;;;;;;;0.50;0.40;;;;;;;;;;6127974;23;20042;-81
2022/05/18 06:18:26;;;;;;;0.77;0.57;;;;;;;;;;6128178;23;20058;-82
2022/05/18 06:20:54;;;;;;;0.30;0.30;;;;;;;;;;6127886;23;20061;-82
2022/05/18 06:23:19;;;;;;;0.40;0.22;;;;;;;;;;6128252;23;20013;-82
2022/05/18 06:25:47;;;;;;;0.10;0.10;;;;;;;;;;6126710;23;20469;-79
2022/05/18 06:28:15;;;;;;;1.05;0.40;;;;;;;;;;6128098;23;20081;-80
2022/05/18 06:30:43;;;;;;;0.47;0.47;;;;;;;;;;6126575;23;20013;-80
2022/05/18 06:33:10;;;;;;;0.70;0.40;;;;;;;;;;6128458;23;19998;-80
2022/05/18 06:35:35;;;;;;;0.38;0.38;;;;;;;;;;6128136;23;20077;-80
2022/05/18 06:38:08;;;;;;;2.90;0.35;;;;;;;;;;6127638;23;20094;-79
2022/05/18 06:41:22;;;;;;;0.28;0.28;;;;;;;;;;6127659;23;20029;-81
2022/05/18 06:43:22;;;;;;;2.42;0.63;;;;;;;;;;6117503;23;20021;-82
2022/05/18 06:45:51;;;;;;;4.47;1.20;;;;;;;;;;6126595;23;20014;-81
2022/05/18 06:48:16;;;;;;;0.75;0.40;;;;;;;;;;6127874;23;20010;-81
2022/05/18 06:50:41;;;;;;;0.40;0.40;;;;;;;;;;6127739;23;20084;-81
2022/05/18 06:53:11;;;;;;;0.50;0.50;;;;;;;;;;6127719;23;20002;-81
2022/05/18 06:55:36;;;;;;;0.40;0.40;;;;;;;;;;6127986;23;20002;-82
2022/05/18 06:58:02;;;;;;;0.43;0.40;;;;;;;;;;6127917;23;20005;-80
2022/05/18 07:00:29;;;;;;;5.80;0.63;;;;;;;;;;6128057;23;20061;-82
2022/05/18 07:02:55;;;;;;;0.75;0.45;;;;;;;;;;6127691;23;20056;-83
2022/05/18 07:05:20;;;;;;;0.22;0.22;;;;;;;;;;6127382;23;20009;-81
2022/05/18 07:07:45;;;;;;;1.05;0.43;;;;;;;;;;6128034;23;20282;-82
2022/05/18 07:10:13;;;;;;;1.30;1.05;;;;;;;;;;6127852;23;20001;-81
2022/05/18 07:12:38;;;;;;;0.25;0.25;;;;;;;;;;6127581;23;20137;-83
2022/05/18 07:15:12;;;;;;;0.50;0.50;;;;;;;;;;6127702;23;20037;-82
2022/05/18 07:17:37;;;;;;;1.42;0.60;;;;;;;;;;6127125;23;20290;-83
2022/05/18 07:20:04;;;;;;;0.70;0.47;;;;;;;;;;6127717;23;20002;-80
2022/05/18 07:22:29;;;;;;;0.40;0.40;;;;;;;;;;6127709;23;20084;-81
2022/05/18 07:24:57;;;;;;;0.45;0.40;;;;;;;;;;6127882;23;20210;-82
2022/05/18 07:27:22;;;;;;;0.32;0.30;;;;;;;;;;6126859;23;20436;-80
2022/05/18 07:29:48;;;;;;;0.52;0.52;;;;;;;;;;6127375;23;19997;-81
2022/05/18 07:32:13;;;;;;;0.80;0.60;;;;;;;;;;6127809;23;20006;-83
2022/05/18 07:34:40;;;;;;;0.32;0.32;;;;;;;;;;6126999;23;20002;-81
2022/05/18 07:37:06;;;;;;;1.63;0.75;;;;;;;;;;6125825;23;20044;-82
2022/05/18 07:39:32;;;;;;;1.77;0.75;;;;;;;;;;6127465;23;20077;-81
2022/05/18 07:42:01;;;;;;;0.30;0.30;;;;;;;;;;6126362;23;20002;-80
2022/05/18 07:44:29;;;;;;;0.30;0.30;;;;;;;;;;6127723;23;20020;-79
2022/05/18 07:46:55;;;;;;;0.30;0.30;;;;;;;;;;6126534;23;20002;-78
2022/05/18 07:49:21;;;;;;;0.25;0.20;;;;;;;;;;6127349;23;20077;-81
2022/05/18 07:51:46;;;;;;;0.22;0.22;;;;;;;;;;6126119;23;20033;-80
2022/05/18 07:54:12;;;;;;;1.45;1.10;;;;;;;;;;6126252;23;20180;-80
2022/05/18 07:56:38;;;;;;;0.55;0.35;;;;;;;;;;6127533;23;20463;-79
2022/05/18 07:59:06;;;;;;;2.60;0.95;;;;;;;;;;6127323;23;20017;-80
2022/05/18 08:01:33;;;;;;;0.68;0.60;;;;;;;;;;6127000;23;20002;-80
2022/05/18 08:04:00;;;;;;;0.90;0.40;;;;;;;;;;6127301;23;20002;-80
2022/05/18 08:06:25;;;;;;;1.58;0.73;;;;;;;;;;6126056;23;20010;-78
2022/05/18 08:08:51;;;;;;;0.75;0.73;;;;;;;;;;6127429;23;20077;-81
2022/05/18 08:16:50;;;;;;;0.30;0.30;;;;;;;;;;6127225;23;20109;-81
2022/05/18 08:19:17;;;;;;;0.63;0.40;;;;;;;;;;6127269;23;20016;-78
2022/05/18 08:21:42;;;;;;;4.38;0.93;;;;;;;;;;6126852;23;20006;-79
2022/05/18 08:24:11;;;;;;;0.28;0.17;;;;;;;;;;6128601;23;20177;-80
2022/05/18 08:26:38;;;;;;;0.20;0.20;;;;;;;;;;6128682;23;20016;-77
2022/05/18 08:29:04;;;;;;;1.15;0.57;;;;;;;;;;6128851;23;20310;-79
2022/05/18 08:31:29;;;;;;;0.80;0.55;;;;;;;;;;6152173;23;20006;-80
2022/05/18 08:33:55;;;;;;;1.45;0.35;;;;;;;;;;6128510;23;20056;-79
2022/05/18 08:36:22;;;;;;;1.10;0.40;;;;;;;;;;6129199;23;20006;-81
2022/05/18 08:38:47;;;;;;;1.10;0.55;;;;;;;;;;6152446;23;20100;-80
2022/05/18 08:41:21;;;;;;;0.40;0.40;;;;;;;;;;6129035;23;20099;-75
2022/05/18 08:43:53;;;;;;;0.50;0.40;;;;;;;;;;6151738;23;20006;-79
2022/05/18 08:46:24;;;;;;;0.38;0.38;;;;;;;;;;6151827;23;20057;-78
2022/05/18 08:49:06;;;;;;;0.52;0.50;;;;;;;;;;6126586;23;20010;-79
2022/05/18 08:51:41;;;;;;;0.70;0.50;;;;;;;;;;6128558;23;20001;-78
2022/05/18 08:54:37;;;;;;;0.20;0.20;;;;;;;;;;6151597;23;20005;-79
2022/05/18 08:57:15;;;;;;;0.82;0.52;;;;;;;;;;6127587;23;20413;-80
2022/05/18 08:59:41;;;;;;;0.70;0.52;;;;;;;;;;6127670;23;20267;-73
2022/05/18 09:02:16;;;;;;;0.50;0.40;;;;;;;;;;6127422;23;20097;-80
2022/05/18 09:04:51;;;;;;;0.20;0.20;;;;;;;;;;6128978;23;20013;-79
2022/05/18 09:07:21;;;;;;;0.20;0.20;;;;;;;;;;6128658;23;20065;-80
2022/05/18 09:10:16;;;;;;;0.40;0.37;;;;;;;;;;6128973;23;20006;-80
2022/05/18 09:12:47;;;;;;;1.55;1.02;;;;;;;;;;6127634;23;20005;-78
2022/05/18 09:15:18;;;;;;;0.40;0.32;;;;;;;;;;6151281;23;20001;-80
2022/05/18 09:17:43;;;;;;;0.43;0.33;;;;;;;;;;6128334;23;20476;-80
2022/05/18 09:20:24;;;;;;;0.43;0.43;;;;;;;;;;6128486;23;20005;-80
2022/05/18 09:23:15;;;;;;;0.68;0.60;;;;;;;;;;6128650;23;20006;-80
2022/05/18 09:26:05;;;;;;;0.70;0.63;;;;;;;;;;6127135;23;20021;-80
2022/05/18 09:28:32;;;;;;;0.40;0.40;;;;;;;;;;6128815;23;20002;-77
2022/05/18 09:31:27;;;;;;;0.25;0.25;;;;;;;;;;6127841;23;19998;-80
2022/05/18 09:34:28;;;;;;;0.30;0.30;;;;;;;;;;6127197;23;20005;-79
2022/05/18 09:36:59;;;;;;;1.08;0.43;;;;;;;;;;6096751;23;20415;-78
2022/05/18 09:39:27;;;;;;;1.15;0.50;;;;;;;;;;6128343;23;20041;-77
2022/05/18 09:42:00;;;;;;;0.55;0.45;;;;;;;;;;6127670;23;20002;-78
2022/05/18 09:44:50;;;;;;;0.73;0.70;;;;;;;;;;6126904;23;20010;-78
2022/05/18 09:47:20;;;;;;;0.40;0.40;;;;;;;;;;6128576;23;20001;-82
2022/05/18 09:49:56;;;;;;;0.68;0.68;;;;;;;;;;6127757;23;20009;-81
2022/05/18 09:52:27;;;;;;;0.28;0.28;;;;;;;;;;6151027;23;20002;-81
2022/05/18 09:55:11;;;;;;;0.38;0.38;;;;;;;;;;6128284;23;20014;-81
2022/05/18 09:57:39;;;;;;;1.10;0.40;;;;;;;;;;6102885;23;20361;-83
2022/05/18 10:00:11;;;;;;;0.63;0.63;;;;;;;;;;6128164;23;20006;-78
2022/05/18 10:08:28;;;;;;;0.68;0.63;;;;;;;;;;6127551;23;20021;-80
2022/05/18 10:11:21;;;;;;;0.20;0.20;;;;;;;;;;6127729;23;20016;-79
2022/05/18 10:14:10;;;;;;;2.63;0.98;;;;;;;;;;6126400;23;20033;-79
2022/05/18 10:16:44;;;;;;;0.40;0.40;;;;;;;;;;6125931;23;20020;-81
2022/05/18 10:19:30;;;;;;;3.28;0.98;;;;;;;;;;6127022;23;20357;-78
2022/05/18 10:22:06;;;;;;;0.82;0.40;;;;;;;;;;6126221;23;20005;-75
2022/05/18 10:25:07;;;;;;;0.45;0.43;;;;;;;;;;6151491;23;20006;-76
2022/05/18 10:27:38;;;;;;;0.82;0.82;;;;;;;;;;6094462;23;20405;-78
2022/05/18 10:30:10;;;;;;;1.20;0.60;;;;;;;;;;6127890;23;19998;-77
2022/05/18 10:32:51;;;;;;;0.68;0.45;;;;;;;;;;6126785;23;20002;-76
2022/05/18 10:35:31;;;;;;;0.30;0.30;;;;;;;;;;6127363;23;20002;-77
2022/05/18 10:38:00;;;;;;;0.98;0.30;;;;;;;;;;6127039;23;20012;-79
2022/05/18 10:40:28;;;;;;;0.63;0.60;;;;;;;;;;6127376;23;20010;-78
2022/05/18 10:43:16;;;;;;;0.40;0.40;;;;;;;;;;6101712;23;20084;-77
2022/05/18 10:45:44;;;;;;;2.78;0.82;;;;;;;;;;6127025;23;20002;-79
2022/05/18 10:48:17;;;;;;;0.52;0.52;;;;;;;;;;6149925;23;20365;-80
2022/05/18 10:50:45;;;;;;;0.50;0.50;;;;;;;;;;6125871;23;20065;-79
2022/05/18 10:53:13;;;;;;;0.52;0.52;;;;;;;;;;6150329;23;20002;-85
2022/05/18 10:55:54;;;;;;;0.57;0.57;;;;;;;;;;6126498;23;20507;-81
2022/05/18 10:58:28;;;;;;;0.43;0.43;;;;;;;;;;6126586;23;20006;-84
2022/05/18 11:00:59;;;;;;;1.17;1.05;;;;;;;;;;6126110;23;20045;-79
2022/05/18 11:03:45;;;;;;;0.93;0.60;;;;;;;;;;6126292;23;19998;-81
2022/05/18 11:06:14;;;;;;;0.50;0.50;;;;;;;;;;6126726;23;19998;-83
2022/05/18 11:08:42;;;;;;;4.63;0.98;;;;;;;;;;6126841;23;20038;-83
2022/05/18 11:11:26;;;;;;;0.68;0.68;;;;;;;;;;6127547;23;20010;-85
2022/05/18 11:14:06;;;;;;;0.50;0.40;;;;;;;;;;6128569;23;20013;-86
2022/05/18 11:16:32;;;;;;;0.40;0.40;;;;;;;;;;6127845;23;20006;-85
2022/05/18 11:19:14;;;;;;;0.65;0.60;;;;;;;;;;6127454;23;20010;-84
2022/05/18 11:21:42;;;;;;;0.50;0.50;;;;;;;;;;6125699;23;20012;-79
2022/05/18 11:24:27;;;;;;;0.68;0.63;;;;;;;;;;6127259;23;20125;-83
2022/05/18 11:26:52;;;;;;;0.75;0.50;;;;;;;;;;6127508;23;20006;-82
2022/05/18 11:29:56;;;;;;;10.67;0.97;;;;;;;;;;6127328;23;20293;-81
2022/05/18 11:32:56;;;;;;;0.70;0.68;;;;;;;;;;6127313;23;20012;-82
2022/05/18 11:35:22;;;;;;;0.47;0.47;;;;;;;;;;6127691;23;20017;-82
2022/05/18 11:38:18;;;;;;;1.10;0.67;;;;;;;;;;6126529;23;20077;-80
2022/05/18 11:41:21;;;;;;;2.55;0.68;;;;;;;;;;6126735;23;20323;-82
2022/05/18 11:43:53;;;;;;;5.47;0.70;;;;;;;;;;6127642;23;20031;-80
2022/05/18 11:46:33;;;;;;;0.43;0.43;;;;;;;;;;6127821;23;20394;-80
2022/05/18 11:49:21;;;;;;;0.73;0.73;;;;;;;;;;6128069;23;20005;-82
2022/05/18 11:52:14;;;;;;;0.95;0.73;;;;;;;;;;6126403;23;20105;-80
2022/05/18 11:55:14;;;;;;;1.88;0.55;;;;;;;;;;6128198;23;20013;-80
2022/05/18 11:58:10;;;;;;;0.75;0.63;;;;;;;;;;6131300;23;20002;-81
2022/05/18 12:00:48;;;;;;;0.32;0.32;;;;;;;;;;6135090;23;20256;-81
2022/05/18 12:03:28;;;;;;;0.50;0.45;;;;;;;;;;6127328;23;20034;-81
2022/05/18 12:06:06;;;;;;;4.50;1.50;;;;;;;;;;6127832;23;20017;-81
2022/05/18 12:08:58;;;;;;;0.50;0.50;;;;;;;;;;6129492;23;20018;-81
2022/05/18 12:11:48;;;;;;;0.32;0.32;;;;;;;;;;6129268;23;20032;-82
2022/05/18 12:14:33;;;;;;;0.38;0.38;;;;;;;;;;6128071;23;20464;-82
2022/05/18 12:17:06;;;;;;;0.32;0.32;;;;;;;;;;6125091;23;20321;-80
2022/05/18 12:20:01;;;;;;;0.30;0.30;;;;;;;;;;6101919;23;20040;-81
2022/05/18 12:23:00;;;;;;;0.28;0.28;;;;;;;;;;6125430;23;20009;-82
2022/05/18 12:25:28;;;;;;;0.63;0.20;;;;;;;;;;6077446;23;20006;-82
2022/05/18 12:27:56;;;;;;;0.70;0.50;;;;;;;;;;6150216;23;20041;-83
2022/05/18 12:30:23;;;;;;;0.30;0.30;;;;;;;;;;6126516;23;19998;-83
2022/05/18 12:32:49;;;;;;;0.52;0.28;;;;;;;;;;6126152;23;20005;-81
2022/05/18 12:35:19;;;;;;;0.30;0.30;;;;;;;;;;6126175;23;20006;-83
2022/05/18 12:38:03;;;;;;;0.55;0.55;;;;;;;;;;6125676;23;20503;-80
2022/05/18 12:40:35;;;;;;;0.32;0.32;;;;;;;;;;6127655;23;20006;-85
2022/05/18 12:43:16;;;;;;;0.20;0.20;;;;;;;;;;6126516;23;20290;-82
2022/05/18 12:45:46;;;;;;;0.80;0.40;;;;;;;;;;6126400;23;19998;-83
2022/05/18 12:48:20;;;;;;;0.30;0.30;;;;;;;;;;6127376;23;20410;-80
2022/05/18 12:51:05;;;;;;;0.75;0.50;;;;;;;;;;6127487;23;20069;-82
2022/05/18 12:53:46;;;;;;;0.30;0.30;;;;;;;;;;6126674;23;20009;-84
2022/05/18 12:56:26;;;;;;;0.87;0.70;;;;;;;;;;6127383;23;20021;-85
2022/05/18 12:59:08;;;;;;;0.57;0.57;;;;;;;;;;6127884;23;20002;-84
2022/05/18 13:01:36;;;;;;;0.60;0.57;;;;;;;;;;6127162;23;20138;-84
2022/05/18 13:04:11;;;;;;;0.43;0.43;;;;;;;;;;6127738;23;20047;-85
2022/05/18 13:06:36;;;;;;;0.75;0.57;;;;;;;;;;6126937;23;20010;-83
2022/05/18 13:09:27;;;;;;;1.30;0.60;;;;;;;;;;6127523;23;20335;-83
2022/05/18 13:12:22;;;;;;;0.30;0.30;;;;;;;;;;6126484;23;20046;-85
2022/05/18 13:17:45;;;;;;;0.22;0.22;;;;;;;;;;5129407;27;20455;-85
2022/05/18 13:20:25;;;;;;;0.43;0.40;;;;;;;;;;5120185;28;20395;-83
2022/05/18 13:23:09;;;;;;;1.00;0.65;;;;;;;;;;5119430;28;20433;-83
2022/05/18 13:25:40;;;;;;;6.60;1.05;;;;;;;;;;5110722;28;20027;-82
2022/05/18 13:28:08;;;;;;;0.30;0.30;;;;;;;;;;5110410;28;20080;-79
2022/05/18 13:30:41;;;;;;;0.68;0.57;;;;;;;;;;5110806;28;20509;-82
2022/05/18 13:33:07;;;;;;;0.50;0.50;;;;;;;;;;5111410;28;20046;-81
2022/05/18 13:35:33;;;;;;;0.20;0.20;;;;;;;;;;5110871;28;20391;-82
2022/05/18 13:38:10;;;;;;;0.20;0.20;;;;;;;;;;5110326;28;20541;-82
2022/05/18 13:40:41;;;;;;;0.50;0.40;;;;;;;;;;5111468;28;20038;-79
2022/05/18 13:43:07;;;;;;;0.68;0.63;;;;;;;;;;5112035;28;20154;-80
2022/05/18 13:45:34;;;;;;;41.58;4.32;;;;;;;;;;5112432;28;20043;-80
2022/05/18 13:47:59;;;;;;;2.05;1.13;;;;;;;;;;5109377;28;20024;-82
2022/05/18 13:50:31;;;;;;;0.25;0.25;;;;;;;;;;5111860;28;20518;-80
2022/05/18 13:53:04;;;;;;;0.10;0.10;;;;;;;;;;5112080;28;20424;-81
2022/05/18 13:55:39;;;;;;;1.50;0.43;;;;;;;;;;5110702;28;20038;-79
2022/05/18 13:58:07;;;;;;;0.75;0.20;;;;;;;;;;5109852;28;20089;-78
2022/05/18 14:00:36;;;;;;;0.95;0.35;;;;;;;;;;5110749;28;20035;-80
2022/05/18 14:03:02;;;;;;;0.68;0.43;;;;;;;;;;5111464;28;20035;-78
2022/05/18 14:05:37;;;;;;;0.38;0.20;;;;;;;;;;5092628;28;20020;-80
2022/05/18 14:08:13;;;;;;;1.10;0.35;;;;;;;;;;5111788;28;20051;-80
2022/05/18 14:10:39;;;;;;;0.43;0.43;;;;;;;;;;5110416;28;20028;-80
2022/05/18 14:13:05;;;;;;;2.05;1.05;;;;;;;;;;5111590;28;20028;-79
2022/05/18 14:15:35;;;;;;;0.50;0.50;;;;;;;;;;5110491;28;20024;-79
2022/05/18 14:18:01;;;;;;;7.18;1.88;;;;;;;;;;5117037;28;20019;-80
2022/05/18 14:20:26;;;;;;;13.90;0.75;;;;;;;;;;5109847;28;20035;-81
2022/05/18 14:22:56;;;;;;;3.63;0.75;;;;;;;;;;5090874;28;20050;-79
2022/05/18 14:25:25;;;;;;;2.53;1.35;;;;;;;;;;5089916;28;20031;-81
2022/05/18 14:27:56;;;;;;;1.23;0.52;;;;;;;;;;5091411;28;20452;-80
2022/05/18 14:30:26;;;;;;;0.37;0.37;;;;;;;;;;5097486;28;20024;-79
2022/05/18 14:32:58;;;;;;;0.25;0.22;;;;;;;;;;5096704;28;20024;-79
2022/05/18 14:35:31;;;;;;;0.55;0.50;;;;;;;;;;5096249;28;20103;-80
2022/05/18 14:38:00;;;;;;;1.17;0.82;;;;;;;;;;5094182;28;20035;-80
2022/05/18 14:40:29;;;;;;;3.50;0.95;;;;;;;;;;5079187;28;20068;-78
2022/05/18 14:42:55;;;;;;;1.55;0.40;;;;;;;;;;5079272;28;20585;-79
2022/05/18 14:45:23;;;;;;;0.90;0.77;;;;;;;;;;5096127;28;20053;-79
2022/05/18 14:47:53;;;;;;;8.98;4.78;;;;;;;;;;5096708;28;20091;-79
2022/05/18 14:50:33;;;;;;;1.40;0.93;;;;;;;;;;5082774;28;20056;-81
2022/05/18 14:53:05;;;;;;;21.73;4.43;;;;;;;;;;5076682;28;20509;-79
2022/05/18 14:55:50;;;;;;;0.47;0.30;;;;;;;;;;5075664;28;20024;-80
2022/05/18 14:58:22;;;;;;;0.85;0.77;;;;;;;;;;5092314;28;20024;-78
2022/05/18 15:00:49;;;;;;;0.55;0.52;;;;;;;;;;5075712;28;20417;-78
2022/05/18 15:03:25;;;;;;;0.40;0.40;;;;;;;;;;5078288;28;20327;-78
2022/05/18 15:05:53;;;;;;;0.20;0.20;;;;;;;;;;5096948;28;20020;-78
2022/05/18 15:09:00;;;;;;;0.73;0.50;;;;;;;;;;5095879;28;20051;-80
2022/05/18 15:11:35;;;;;;;0.40;0.40;;;;;;;;;;5017892;28;20033;-79
2022/05/18 15:14:09;;;;;;;1.75;0.88;;;;;;;;;;5034509;28;20347;-79
2022/05/18 15:16:42;;;;;;;0.43;0.43;;;;;;;;;;5033925;28;20037;-79
2022/05/18 15:19:24;;;;;;;0.68;0.40;;;;;;;;;;5034157;28;20517;-79
2022/05/18 15:22:01;;;;;;;1.40;0.75;;;;;;;;;;5034463;28;20037;-79
2022/05/18 15:24:28;;;;;;;0.60;0.50;;;;;;;;;;4998581;28;20040;-80